sensor_id;sensor_type;location;lat;lon;timestamp;pressure;altitude;pressure_sealevel;temperature;humidity
40073;BME280;25774;52.256;9.356;2022-12-18T00:01:18;101631.19;;;-6.97;100.00
40073;BME280;25774;52.256;9.356;2022-12-18T00:03:44;101610.41;;;-7.05;100.00
40073;BME280;25774;52.256;9.356;2022-12-18T00:06:10;101613.44;;;-7.15;100.00
40073;BME280;25774;52.256;9.356;2022-12-18T00:08:36;101624.75;;;-7.10;100.00
40073;BME280;25774;52.256;9.356;2022-12-18T00:11:13;101615.94;;;-7.16;100.00
40073;BME280;25774;52.256;9.356;2022-12-18T00:13:39;101636.72;;;-7.09;100.00
40073;BME280;25774;52.256;9.356;2022-12-18T00:16:07;101608.63;;;-7.30;100.00
40073;BME280;25774;52.256;9.356;2022-12-18T00:18:33;101613.47;;;-7.37;100.00
40073;BME280;25774;52.256;9.356;2022-12-18T00:21:03;101616.94;;;-7.37;100.00
40073;BME280;25774;52.256;9.356;2022-12-18T00:23:29;101637.81;;;-7.26;100.00
40073;BME280;25774;52.256;9.356;2022-12-18T00:25:59;101660.31;;;-7.19;100.00
40073;BME280;25774;52.256;9.356;2022-12-18T00:28:25;101660.53;;;-7.13;100.00
40073;BME280;25774;52.256;9.356;2022-12-18T00:30:50;101681.28;;;-7.07;100.00
40073;BME280;25774;52.256;9.356;2022-12-18T00:33:17;101687.59;;;-6.98;100.00
40073;BME280;25774;52.256;9.356;2022-12-18T00:35:42;101693.25;;;-6.83;100.00
40073;BME280;25774;52.256;9.356;2022-12-18T00:38:08;101677.47;;;-6.94;100.00
40073;BME280;25774;52.256;9.356;2022-12-18T00:40:33;101665.13;;;-7.04;100.00
40073;BME280;25774;52.256;9.356;2022-12-18T00:42:58;101652.47;;;-7.23;100.00
40073;BME280;25774;52.256;9.356;2022-12-18T00:45:29;101648.13;;;-7.25;100.00
40073;BME280;25774;52.256;9.356;2022-12-18T00:47:56;101650.47;;;-7.31;100.00
40073;BME280;25774;52.256;9.356;2022-12-18T00:50:24;101634.94;;;-7.58;100.00
40073;BME280;25774;52.256;9.356;2022-12-18T00:52:49;101642.25;;;-7.44;100.00
40073;BME280;25774;52.256;9.356;2022-12-18T00:55:15;101630.66;;;-7.57;100.00
40073;BME280;25774;52.256;9.356;2022-12-18T00:57:41;101618.97;;;-7.73;100.00
40073;BME280;25774;52.256;9.356;2022-12-18T01:00:10;101634.88;;;-7.59;100.00
40073;BME280;25774;52.256;9.356;2022-12-18T01:02:38;101633.00;;;-7.63;100.00
40073;BME280;25774;52.256;9.356;2022-12-18T01:05:04;101644.66;;;-7.49;100.00
40073;BME280;25774;52.256;9.356;2022-12-18T01:07:30;101634.69;;;-7.41;100.00
40073;BME280;25774;52.256;9.356;2022-12-18T01:09:55;101621.34;;;-7.55;100.00
40073;BME280;25774;52.256;9.356;2022-12-18T01:12:21;101604.28;;;-7.77;100.00
40073;BME280;25774;52.256;9.356;2022-12-18T01:14:46;101601.94;;;-7.93;100.00
40073;BME280;25774;52.256;9.356;2022-12-18T01:17:11;101622.59;;;-7.89;100.00
40073;BME280;25774;52.256;9.356;2022-12-18T01:19:37;101630.13;;;-7.93;100.00
40073;BME280;25774;52.256;9.356;2022-12-18T01:22:02;101637.44;;;-8.03;100.00
40073;BME280;25774;52.256;9.356;2022-12-18T01:24:28;101677.13;;;-7.50;100.00
40073;BME280;25774;52.256;9.356;2022-12-18T01:26:54;101688.72;;;-7.37;100.00
40073;BME280;25774;52.256;9.356;2022-12-18T01:29:22;101682.53;;;-7.42;100.00
40073;BME280;25774;52.256;9.356;2022-12-18T01:31:48;101691.22;;;-7.38;100.00
40073;BME280;25774;52.256;9.356;2022-12-18T01:34:13;101705.56;;;-7.21;100.00
40073;BME280;25774;52.256;9.356;2022-12-18T01:36:38;101700.44;;;-7.21;100.00
40073;BME280;25774;52.256;9.356;2022-12-18T01:39:10;101710.22;;;-7.11;100.00
40073;BME280;25774;52.256;9.356;2022-12-18T01:41:35;101708.53;;;-7.10;100.00
40073;BME280;25774;52.256;9.356;2022-12-18T01:47:25;101713.78;;;-7.07;100.00
40073;BME280;25774;52.256;9.356;2022-12-18T01:49:52;101729.44;;;-6.99;100.00
40073;BME280;25774;52.256;9.356;2022-12-18T01:52:18;101727.59;;;-7.04;100.00
40073;BME280;25774;52.256;9.356;2022-12-18T01:54:46;101738.00;;;-6.99;100.00
40073;BME280;25774;52.256;9.356;2022-12-18T01:57:13;101730.78;;;-7.09;100.00
40073;BME280;25774;52.256;9.356;2022-12-18T01:59:39;101714.81;;;-7.25;100.00
40073;BME280;25774;52.256;9.356;2022-12-18T02:02:07;101713.19;;;-7.22;100.00
40073;BME280;25774;52.256;9.356;2022-12-18T02:04:32;101721.81;;;-7.20;100.00
40073;BME280;25774;52.256;9.356;2022-12-18T02:07:10;101734.22;;;-7.09;100.00
40073;BME280;25774;52.256;9.356;2022-12-18T02:09:49;101743.97;;;-7.00;100.00
40073;BME280;25774;52.256;9.356;2022-12-18T02:12:33;101736.16;;;-7.03;100.00
40073;BME280;25774;52.256;9.356;2022-12-18T02:15:06;101736.66;;;-7.12;100.00
40073;BME280;25774;52.256;9.356;2022-12-18T02:17:51;101730.63;;;-7.14;100.00
40073;BME280;25774;52.256;9.356;2022-12-18T02:20:28;101734.94;;;-7.13;100.00
40073;BME280;25774;52.256;9.356;2022-12-18T02:25:54;101731.38;;;-7.16;100.00
40073;BME280;25774;52.256;9.356;2022-12-18T02:28:31;101721.72;;;-7.23;100.00
40073;BME280;25774;52.256;9.356;2022-12-18T02:30:59;101728.19;;;-7.11;100.00
40073;BME280;25774;52.256;9.356;2022-12-18T02:33:28;101720.97;;;-7.21;100.00
40073;BME280;25774;52.256;9.356;2022-12-18T02:35:55;101720.47;;;-7.11;100.00
40073;BME280;25774;52.256;9.356;2022-12-18T02:38:23;101695.88;;;-7.28;100.00
40073;BME280;25774;52.256;9.356;2022-12-18T02:40:50;101697.03;;;-7.20;100.00
40073;BME280;25774;52.256;9.356;2022-12-18T02:43:18;101700.88;;;-7.09;100.00
40073;BME280;25774;52.256;9.356;2022-12-18T02:48:13;101693.47;;;-7.01;100.00
40073;BME280;25774;52.256;9.356;2022-12-18T02:50:45;101698.94;;;-6.92;100.00
40073;BME280;25774;52.256;9.356;2022-12-18T02:56:02;101686.66;;;-7.00;100.00
40073;BME280;25774;52.256;9.356;2022-12-18T03:01:43;101710.47;;;-6.81;100.00
40073;BME280;25774;52.256;9.356;2022-12-18T03:04:42;101719.25;;;-6.74;100.00
40073;BME280;25774;52.256;9.356;2022-12-18T03:07:18;101716.91;;;-6.68;100.00
40073;BME280;25774;52.256;9.356;2022-12-18T03:09:49;101728.91;;;-6.67;100.00
40073;BME280;25774;52.256;9.356;2022-12-18T03:12:23;101717.84;;;-6.66;100.00
40073;BME280;25774;52.256;9.356;2022-12-18T03:15:08;101707.25;;;-6.75;100.00
40073;BME280;25774;52.256;9.356;2022-12-18T03:17:36;101699.56;;;-6.75;100.00
40073;BME280;25774;52.256;9.356;2022-12-18T03:20:12;101706.72;;;-6.66;100.00
40073;BME280;25774;52.256;9.356;2022-12-18T03:22:41;101683.78;;;-6.86;100.00
40073;BME280;25774;52.256;9.356;2022-12-18T03:25:11;101694.56;;;-6.70;100.00
40073;BME280;25774;52.256;9.356;2022-12-18T03:27:46;101698.94;;;-6.68;100.00
40073;BME280;25774;52.256;9.356;2022-12-18T03:30:14;101698.47;;;-6.82;100.00
40073;BME280;25774;52.256;9.356;2022-12-18T03:33:05;101705.75;;;-6.92;100.00
40073;BME280;25774;52.256;9.356;2022-12-18T03:35:36;101699.97;;;-6.87;100.00
40073;BME280;25774;52.256;9.356;2022-12-18T03:38:05;101716.88;;;-6.69;100.00
40073;BME280;25774;52.256;9.356;2022-12-18T03:46:17;101672.88;;;-7.03;100.00
40073;BME280;25774;52.256;9.356;2022-12-18T03:48:51;101683.31;;;-6.98;100.00
40073;BME280;25774;52.256;9.356;2022-12-18T03:54:05;101672.53;;;-7.12;100.00
40073;BME280;25774;52.256;9.356;2022-12-18T03:56:39;101680.88;;;-6.95;100.00
40073;BME280;25774;52.256;9.356;2022-12-18T03:59:07;101668.31;;;-7.11;100.00
40073;BME280;25774;52.256;9.356;2022-12-18T04:01:38;101671.84;;;-7.08;100.00
40073;BME280;25774;52.256;9.356;2022-12-18T04:04:06;101647.56;;;-7.17;100.00
40073;BME280;25774;52.256;9.356;2022-12-18T04:06:35;101649.34;;;-7.15;100.00
40073;BME280;25774;52.256;9.356;2022-12-18T04:09:00;101636.59;;;-7.36;100.00
40073;BME280;25774;52.256;9.356;2022-12-18T04:11:26;101624.31;;;-7.44;100.00
40073;BME280;25774;52.256;9.356;2022-12-18T04:13:57;101630.06;;;-7.50;100.00
40073;BME280;25774;52.256;9.356;2022-12-18T04:16:26;101638.19;;;-7.62;100.00
40073;BME280;25774;52.256;9.356;2022-12-18T04:18:52;101630.63;;;-7.81;100.00
40073;BME280;25774;52.256;9.356;2022-12-18T04:21:18;101631.41;;;-7.82;100.00
40073;BME280;25774;52.256;9.356;2022-12-18T04:23:44;101635.91;;;-7.77;100.00
40073;BME280;25774;52.256;9.356;2022-12-18T04:26:09;101614.50;;;-8.00;100.00
40073;BME280;25774;52.256;9.356;2022-12-18T04:28:35;101621.47;;;-7.97;100.00
40073;BME280;25774;52.256;9.356;2022-12-18T04:31:00;101620.56;;;-7.98;100.00
40073;BME280;25774;52.256;9.356;2022-12-18T04:33:25;101626.22;;;-8.06;100.00
40073;BME280;25774;52.256;9.356;2022-12-18T04:35:51;101657.81;;;-7.85;100.00
40073;BME280;25774;52.256;9.356;2022-12-18T04:38:16;101643.69;;;-7.96;100.00
40073;BME280;25774;52.256;9.356;2022-12-18T04:40:42;101653.59;;;-7.83;100.00
40073;BME280;25774;52.256;9.356;2022-12-18T04:43:07;101645.16;;;-7.80;100.00
40073;BME280;25774;52.256;9.356;2022-12-18T04:45:33;101645.16;;;-7.80;100.00
40073;BME280;25774;52.256;9.356;2022-12-18T04:47:59;101648.09;;;-7.92;100.00
40073;BME280;25774;52.256;9.356;2022-12-18T04:50:25;101647.00;;;-7.99;100.00
40073;BME280;25774;52.256;9.356;2022-12-18T04:52:50;101641.94;;;-7.97;100.00
40073;BME280;25774;52.256;9.356;2022-12-18T04:55:16;101634.06;;;-8.02;100.00
40073;BME280;25774;52.256;9.356;2022-12-18T04:57:41;101673.25;;;-7.61;100.00
40073;BME280;25774;52.256;9.356;2022-12-18T05:00:07;101686.31;;;-7.32;100.00
40073;BME280;25774;52.256;9.356;2022-12-18T05:02:33;101692.56;;;-7.26;100.00
40073;BME280;25774;52.256;9.356;2022-12-18T05:04:58;101684.69;;;-7.08;100.00
40073;BME280;25774;52.256;9.356;2022-12-18T05:07:24;101694.56;;;-6.94;100.00
40073;BME280;25774;52.256;9.356;2022-12-18T05:09:49;101707.13;;;-6.78;100.00
40073;BME280;25774;52.256;9.356;2022-12-18T05:12:15;101717.66;;;-6.70;100.00
40073;BME280;25774;52.256;9.356;2022-12-18T05:14:41;101714.72;;;-6.81;100.00
40073;BME280;25774;52.256;9.356;2022-12-18T05:17:06;101725.25;;;-6.73;100.00
40073;BME280;25774;52.256;9.356;2022-12-18T05:19:32;101735.81;;;-6.66;100.00
40073;BME280;25774;52.256;9.356;2022-12-18T05:21:57;101719.97;;;-6.78;100.00
40073;BME280;25774;52.256;9.356;2022-12-18T05:24:25;101713.75;;;-6.85;100.00
40073;BME280;25774;52.256;9.356;2022-12-18T05:26:50;101714.22;;;-6.95;100.00
40073;BME280;25774;52.256;9.356;2022-12-18T05:29:16;101722.97;;;-6.90;100.00
40073;BME280;25774;52.256;9.356;2022-12-18T05:31:41;101733.63;;;-6.79;100.00
40073;BME280;25774;52.256;9.356;2022-12-18T05:34:06;101735.38;;;-6.78;100.00
40073;BME280;25774;52.256;9.356;2022-12-18T05:36:32;101726.69;;;-6.82;100.00
40073;BME280;25774;52.256;9.356;2022-12-18T05:38:57;101725.72;;;-6.85;100.00
40073;BME280;25774;52.256;9.356;2022-12-18T05:41:23;101725.72;;;-6.85;100.00
40073;BME280;25774;52.256;9.356;2022-12-18T05:43:50;101728.31;;;-6.84;100.00
40073;BME280;25774;52.256;9.356;2022-12-18T05:46:17;101723.63;;;-6.95;100.00
40073;BME280;25774;52.256;9.356;2022-12-18T05:48:43;101727.94;;;-6.94;100.00
40073;BME280;25774;52.256;9.356;2022-12-18T05:51:11;101744.16;;;-6.95;100.00
40073;BME280;25774;52.256;9.356;2022-12-18T05:53:37;101743.97;;;-7.00;100.00
40073;BME280;25774;52.256;9.356;2022-12-18T05:56:05;101760.28;;;-6.75;100.00
40073;BME280;25774;52.256;9.356;2022-12-18T05:58:32;101743.44;;;-6.91;100.00
40073;BME280;25774;52.256;9.356;2022-12-18T06:01:05;101732.94;;;-6.97;100.00
40073;BME280;25774;52.256;9.356;2022-12-18T06:03:31;101719.06;;;-7.25;100.00
40073;BME280;25774;52.256;9.356;2022-12-18T06:05:56;101720.84;;;-7.24;100.00
40073;BME280;25774;52.256;9.356;2022-12-18T06:08:22;101733.72;;;-7.22;100.00
40073;BME280;25774;52.256;9.356;2022-12-18T06:10:52;101745.06;;;-7.16;100.00
40073;BME280;25774;52.256;9.356;2022-12-18T06:13:18;101736.22;;;-7.24;100.00
40073;BME280;25774;52.256;9.356;2022-12-18T06:15:44;101746.13;;;-7.11;100.00
40073;BME280;25774;52.256;9.356;2022-12-18T06:18:11;101738.38;;;-7.12;100.00
40073;BME280;25774;52.256;9.356;2022-12-18T06:20:36;101739.72;;;-7.22;100.00
40073;BME280;25774;52.256;9.356;2022-12-18T06:23:05;101745.91;;;-7.17;100.00
40073;BME280;25774;52.256;9.356;2022-12-18T06:25:30;101732.31;;;-7.37;100.00
40073;BME280;25774;52.256;9.356;2022-12-18T06:27:55;101732.72;;;-7.26;100.00
40073;BME280;25774;52.256;9.356;2022-12-18T06:30:22;101737.09;;;-7.23;100.00
40073;BME280;25774;52.256;9.356;2022-12-18T06:32:49;101732.72;;;-7.26;100.00
40073;BME280;25774;52.256;9.356;2022-12-18T06:35:15;101744.47;;;-7.09;100.00
40073;BME280;25774;52.256;9.356;2022-12-18T06:37:43;101744.69;;;-7.04;100.00
40073;BME280;25774;52.256;9.356;2022-12-18T06:40:10;101749.56;;;-7.10;100.00
40073;BME280;25774;52.256;9.356;2022-12-18T06:42:35;101754.94;;;-7.04;100.00
40073;BME280;25774;52.256;9.356;2022-12-18T06:45:01;101754.75;;;-7.09;100.00
40073;BME280;25774;52.256;9.356;2022-12-18T06:47:26;101755.06;;;-7.01;100.00
40073;BME280;25774;52.256;9.356;2022-12-18T06:49:51;101756.75;;;-7.02;100.00
40073;BME280;25774;52.256;9.356;2022-12-18T06:52:17;101756.53;;;-7.08;100.00
40073;BME280;25774;52.256;9.356;2022-12-18T06:54:43;101761.66;;;-7.08;100.00
40073;BME280;25774;52.256;9.356;2022-12-18T06:57:10;101759.44;;;-6.98;100.00
40073;BME280;25774;52.256;9.356;2022-12-18T06:59:35;101756.63;;;-7.05;100.00
40073;BME280;25774;52.256;9.356;2022-12-18T07:02:01;101747.84;;;-7.11;100.00
40073;BME280;25774;52.256;9.356;2022-12-18T07:04:30;101756.44;;;-7.09;100.00
40073;BME280;25774;52.256;9.356;2022-12-18T07:06:55;101753.59;;;-7.17;100.00
40073;BME280;25774;52.256;9.356;2022-12-18T07:09:22;101769.34;;;-7.08;100.00
40073;BME280;25774;52.256;9.356;2022-12-18T07:11:48;101781.00;;;-6.93;100.00
40073;BME280;25774;52.256;9.356;2022-12-18T07:14:14;101784.38;;;-6.94;100.00
40073;BME280;25774;52.256;9.356;2022-12-18T07:16:40;101787.34;;;-6.84;100.00
40073;BME280;25774;52.256;9.356;2022-12-18T07:19:05;101798.47;;;-6.83;100.00
40073;BME280;25774;52.256;9.356;2022-12-18T07:21:32;101797.63;;;-6.84;100.00
40073;BME280;25774;52.256;9.356;2022-12-18T07:23:58;101799.94;;;-6.90;100.00
40073;BME280;25774;52.256;9.356;2022-12-18T07:26:25;101800.13;;;-6.85;100.00
40073;BME280;25774;52.256;9.356;2022-12-18T07:28:55;101781.63;;;-6.99;100.00
40073;BME280;25774;52.256;9.356;2022-12-18T07:31:21;101791.22;;;-6.95;100.00
40073;BME280;25774;52.256;9.356;2022-12-18T07:33:47;101790.91;;;-7.03;100.00
40073;BME280;25774;52.256;9.356;2022-12-18T07:36:13;101791.97;;;-6.97;100.00
40073;BME280;25774;52.256;9.356;2022-12-18T07:38:39;101790.22;;;-6.98;100.00
40073;BME280;25774;52.256;9.356;2022-12-18T07:41:10;101799.06;;;-6.90;100.00
40073;BME280;25774;52.256;9.356;2022-12-18T07:43:36;101789.78;;;-6.87;100.00
40073;BME280;25774;52.256;9.356;2022-12-18T07:46:02;101788.81;;;-6.90;100.00
40073;BME280;25774;52.256;9.356;2022-12-18T07:48:29;101790.38;;;-6.71;100.00
40073;BME280;25774;52.256;9.356;2022-12-18T07:51:02;101789.63;;;-6.69;100.00
40073;BME280;25774;52.256;9.356;2022-12-18T07:53:28;101792.41;;;-6.63;100.00
40073;BME280;25774;52.256;9.356;2022-12-18T07:55:57;101788.38;;;-6.56;100.00
40073;BME280;25774;52.256;9.356;2022-12-18T07:58:23;101776.63;;;-6.49;100.00
40073;BME280;25774;52.256;9.356;2022-12-18T08:00:48;101776.69;;;-6.48;100.00
40073;BME280;25774;52.256;9.356;2022-12-18T08:03:14;101782.00;;;-6.43;100.00
40073;BME280;25774;52.256;9.356;2022-12-18T08:05:39;101790.16;;;-6.31;100.00
40073;BME280;25774;52.256;9.356;2022-12-18T08:08:05;101782.38;;;-6.33;100.00
40073;BME280;25774;52.256;9.356;2022-12-18T08:10:30;101788.06;;;-6.17;100.00
40073;BME280;25774;52.256;9.356;2022-12-18T08:12:55;101786.31;;;-6.18;100.00
40073;BME280;25774;52.256;9.356;2022-12-18T08:15:21;101792.91;;;-6.01;100.00
40073;BME280;25774;52.256;9.356;2022-12-18T08:17:46;101787.66;;;-6.04;100.00
40073;BME280;25774;52.256;9.356;2022-12-18T08:20:12;101783.50;;;-6.00;100.00
40073;BME280;25774;52.256;9.356;2022-12-18T08:22:41;101787.97;;;-5.95;100.00
40073;BME280;25774;52.256;9.356;2022-12-18T08:25:08;101784.81;;;-5.86;100.00
40073;BME280;25774;52.256;9.356;2022-12-18T08:27:33;101787.81;;;-5.74;100.00
40073;BME280;25774;52.256;9.356;2022-12-18T08:30:00;101789.69;;;-5.68;100.00
40073;BME280;25774;52.256;9.356;2022-12-18T08:32:27;101794.53;;;-5.52;100.00
40073;BME280;25774;52.256;9.356;2022-12-18T08:34:52;101787.69;;;-5.51;100.00
40073;BME280;25774;52.256;9.356;2022-12-18T08:37:18;101776.66;;;-5.47;100.00
40073;BME280;25774;52.256;9.356;2022-12-18T08:39:44;101800.00;;;-5.14;100.00
40073;BME280;25774;52.256;9.356;2022-12-18T08:42:10;101794.72;;;-5.19;100.00
40073;BME280;25774;52.256;9.356;2022-12-18T08:44:54;101785.97;;;-5.24;100.00
40073;BME280;25774;52.256;9.356;2022-12-18T08:47:19;101782.50;;;-5.26;100.00
40073;BME280;25774;52.256;9.356;2022-12-18T08:49:45;101789.09;;;-5.07;100.00
40073;BME280;25774;52.256;9.356;2022-12-18T08:52:10;101752.38;;;-5.28;100.00
40073;BME280;25774;52.256;9.356;2022-12-18T08:54:36;101755.19;;;-5.21;100.00
40073;BME280;25774;52.256;9.356;2022-12-18T08:57:01;101758.00;;;-5.13;100.00
40073;BME280;25774;52.256;9.356;2022-12-18T08:59:27;101763.47;;;-5.02;100.00
40073;BME280;25774;52.256;9.356;2022-12-18T09:01:53;101768.16;;;-4.89;100.00
40073;BME280;25774;52.256;9.356;2022-12-18T09:04:20;101752.78;;;-4.86;100.00
40073;BME280;25774;52.256;9.356;2022-12-18T09:06:46;101766.81;;;-4.76;100.00
40073;BME280;25774;52.256;9.356;2022-12-18T09:09:11;101766.22;;;-4.68;100.00
40073;BME280;25774;52.256;9.356;2022-12-18T09:11:37;101765.78;;;-4.53;100.00
40073;BME280;25774;52.256;9.356;2022-12-18T09:14:03;101766.16;;;-4.39;100.00
40073;BME280;25774;52.256;9.356;2022-12-18T09:16:29;101761.25;;;-4.30;100.00
40073;BME280;25774;52.256;9.356;2022-12-18T09:18:55;101744.13;;;-4.28;100.00
40073;BME280;25774;52.256;9.356;2022-12-18T09:21:25;101728.75;;;-4.25;100.00
40073;BME280;25774;52.256;9.356;2022-12-18T09:23:51;101719.16;;;-4.30;100.00
40073;BME280;25774;52.256;9.356;2022-12-18T09:26:17;101731.63;;;-4.12;100.00
40073;BME280;25774;52.256;9.356;2022-12-18T09:28:43;101724.78;;;-4.12;100.00
40073;BME280;25774;52.256;9.356;2022-12-18T09:31:11;101719.44;;;-4.19;100.00
40073;BME280;25774;52.256;9.356;2022-12-18T09:33:37;101717.19;;;-4.06;100.00
40073;BME280;25774;52.256;9.356;2022-12-18T09:36:05;101717.19;;;-4.07;100.00
40073;BME280;25774;52.256;9.356;2022-12-18T09:38:32;101730.50;;;-3.90;100.00
40073;BME280;25774;52.256;9.356;2022-12-18T09:43:47;101741.03;;;-3.81;100.00
40073;BME280;25774;52.256;9.356;2022-12-18T09:46:31;101734.94;;;-3.83;100.00
40073;BME280;25774;52.256;9.356;2022-12-18T09:49:01;101740.28;;;-3.77;100.00
40073;BME280;25774;52.256;9.356;2022-12-18T09:51:32;101733.91;;;-3.91;100.00
40073;BME280;25774;52.256;9.356;2022-12-18T09:54:03;101740.00;;;-3.88;100.00
40073;BME280;25774;52.256;9.356;2022-12-18T09:56:35;101732.38;;;-3.83;100.00
40073;BME280;25774;52.256;9.356;2022-12-18T09:59:03;101742.94;;;-3.74;100.00
40073;BME280;25774;52.256;9.356;2022-12-18T10:01:30;101750.41;;;-3.50;100.00
40073;BME280;25774;52.256;9.356;2022-12-18T10:03:57;101733.13;;;-3.54;100.00
40073;BME280;25774;52.256;9.356;2022-12-18T10:06:36;101748.03;;;-3.41;100.00
40073;BME280;25774;52.256;9.356;2022-12-18T10:09:25;101744.53;;;-3.43;100.00
40073;BME280;25774;52.256;9.356;2022-12-18T10:22:50;101744.63;;;-3.00;100.00
40073;BME280;25774;52.256;9.356;2022-12-18T10:25:25;101741.59;;;-2.81;100.00
40073;BME280;25774;52.256;9.356;2022-12-18T10:27:57;101735.50;;;-2.85;100.00
40073;BME280;25774;52.256;9.356;2022-12-18T10:30:24;101716.34;;;-2.94;100.00
40073;BME280;25774;52.256;9.356;2022-12-18T10:32:51;101713.84;;;-2.91;100.00
40073;BME280;25774;52.256;9.356;2022-12-18T10:35:24;101719.25;;;-2.79;100.00
40073;BME280;25774;52.256;9.356;2022-12-18T10:40:26;101722.97;;;-2.66;100.00
40073;BME280;25774;52.256;9.356;2022-12-18T10:43:11;101722.34;;;-2.54;100.00
40073;BME280;25774;52.256;9.356;2022-12-18T10:45:37;101709.34;;;-2.58;100.00
40073;BME280;25774;52.256;9.356;2022-12-18T10:48:03;101708.81;;;-2.40;100.00
40073;BME280;25774;52.256;9.356;2022-12-18T10:50:31;101693.44;;;-2.34;100.00
40073;BME280;25774;52.256;9.356;2022-12-18T10:53:03;101676.00;;;-2.44;100.00
40073;BME280;25774;52.256;9.356;2022-12-18T10:55:36;101685.63;;;-2.37;100.00
40073;BME280;25774;52.256;9.356;2022-12-18T10:59:21;101683.28;;;-2.23;100.00
40073;BME280;25774;52.256;9.356;2022-12-18T11:01:17;101677.16;;;-2.29;100.00
40073;BME280;25774;52.256;9.356;2022-12-18T11:04:31;101681.63;;;-2.18;100.00
40073;BME280;25774;52.256;9.356;2022-12-18T11:06:31;101681.75;;;-2.13;100.00
40073;BME280;25774;52.256;9.356;2022-12-18T11:09:03;101680.25;;;-1.99;100.00
40073;BME280;25774;52.256;9.356;2022-12-18T11:11:29;101659.38;;;-2.08;100.00
40073;BME280;25774;52.256;9.356;2022-12-18T11:14:04;101654.38;;;-2.00;100.00
40073;BME280;25774;52.256;9.356;2022-12-18T11:16:34;101645.78;;;-1.98;100.00
40073;BME280;25774;52.256;9.356;2022-12-18T11:22:02;101622.16;;;-2.19;100.00
40073;BME280;25774;52.256;9.356;2022-12-18T11:24:32;101612.47;;;-2.31;100.00
40073;BME280;25774;52.256;9.356;2022-12-18T11:27:00;101628.78;;;-2.34;100.00
40073;BME280;25774;52.256;9.356;2022-12-18T11:29:38;101622.06;;;-2.24;100.00
40073;BME280;25774;52.256;9.356;2022-12-18T11:32:29;101609.13;;;-2.25;100.00
40073;BME280;25774;52.256;9.356;2022-12-18T11:38:16;101601.09;;;-2.41;100.00
40073;BME280;25774;52.256;9.356;2022-12-18T11:40:44;101588.28;;;-2.35;100.00
40073;BME280;25774;52.256;9.356;2022-12-18T11:43:40;101565.06;;;-2.30;100.00
40073;BME280;25774;52.256;9.356;2022-12-18T11:46:23;101565.22;;;-2.22;100.00
40073;BME280;25774;52.256;9.356;2022-12-18T11:49:03;101562.72;;;-2.16;100.00
40073;BME280;25774;52.256;9.356;2022-12-18T11:51:43;101561.81;;;-2.18;100.00
40073;BME280;25774;52.256;9.356;2022-12-18T11:54:15;101567.03;;;-2.17;100.00
40073;BME280;25774;52.256;9.356;2022-12-18T11:59:49;101557.31;;;-2.31;100.00
40073;BME280;25774;52.256;9.356;2022-12-18T12:02:53;101555.63;;;-2.28;100.00
40073;BME280;25774;52.256;9.356;2022-12-18T12:11:16;101536.69;;;-2.27;100.00
40073;BME280;25774;52.256;9.356;2022-12-18T12:16:35;101542.03;;;-2.15;100.00
40073;BME280;25774;52.256;9.356;2022-12-18T12:21:55;101523.84;;;-2.21;100.00
40073;BME280;25774;52.256;9.356;2022-12-18T12:30:18;101522.47;;;-1.97;100.00
40073;BME280;25774;52.256;9.356;2022-12-18T12:40:39;101514.72;;;-1.96;100.00
40073;BME280;25774;52.256;9.356;2022-12-18T12:45:51;101515.72;;;-1.86;100.00
40073;BME280;25774;52.256;9.356;2022-12-18T12:48:26;101510.56;;;-1.86;100.00
40073;BME280;25774;52.256;9.356;2022-12-18T12:50:53;101506.25;;;-1.85;100.00
40073;BME280;25774;52.256;9.356;2022-12-18T12:53:25;101502.81;;;-1.84;100.00
40073;BME280;25774;52.256;9.356;2022-12-18T12:55:52;101514.13;;;-1.78;100.00
40073;BME280;25774;52.256;9.356;2022-12-18T12:58:28;101509.03;;;-1.72;100.00
40073;BME280;25774;52.256;9.356;2022-12-18T13:01:09;101496.03;;;-1.75;100.00
40073;BME280;25774;52.256;9.356;2022-12-18T13:08:57;101480.72;;;-1.58;100.00
40073;BME280;25774;52.256;9.356;2022-12-18T13:11:31;101480.72;;;-1.56;100.00
40073;BME280;25774;52.256;9.356;2022-12-18T13:14:35;101474.81;;;-1.46;100.00
40073;BME280;25774;52.256;9.356;2022-12-18T13:17:35;101489.63;;;-1.31;100.00
40073;BME280;25774;52.256;9.356;2022-12-18T13:20:11;101467.09;;;-1.42;100.00
40073;BME280;25774;52.256;9.356;2022-12-18T13:22:43;101457.50;;;-1.50;100.00
40073;BME280;25774;52.256;9.356;2022-12-18T13:25:28;101462.81;;;-1.39;100.00
40073;BME280;25774;52.256;9.356;2022-12-18T13:35:51;101433.34;;;-1.51;100.00
40073;BME280;25774;52.256;9.356;2022-12-18T13:41:41;101428.09;;;-1.57;100.00
40073;BME280;25774;52.256;9.356;2022-12-18T13:43:49;101409.97;;;-1.58;100.00
40073;BME280;25774;52.256;9.356;2022-12-18T13:46:28;101403.00;;;-1.64;100.00
40073;BME280;25774;52.256;9.356;2022-12-18T13:49:04;101385.78;;;-1.62;100.00
40073;BME280;25774;52.256;9.356;2022-12-18T13:51:33;101371.00;;;-1.72;100.00
40073;BME280;25774;52.256;9.356;2022-12-18T13:54:02;101366.66;;;-1.73;100.00
40073;BME280;25774;52.256;9.356;2022-12-18T13:56:32;101370.19;;;-1.68;100.00
40073;BME280;25774;52.256;9.356;2022-12-18T13:59:20;101363.25;;;-1.71;100.00
40073;BME280;25774;52.256;9.356;2022-12-18T14:01:54;101345.13;;;-1.71;100.00
40073;BME280;25774;52.256;9.356;2022-12-18T14:04:33;101349.34;;;-1.79;100.00
40073;BME280;25774;52.256;9.356;2022-12-18T14:07:17;101343.28;;;-1.82;100.00
40073;BME280;25774;52.256;9.356;2022-12-18T14:09:48;101318.25;;;-1.87;100.00
40073;BME280;25774;52.256;9.356;2022-12-18T14:12:26;101322.44;;;-1.95;100.00
40073;BME280;25774;52.256;9.356;2022-12-18T14:15:32;101326.81;;;-1.91;100.00
40073;BME280;25774;52.256;9.356;2022-12-18T14:18:09;101327.66;;;-1.93;100.00
40073;BME280;25774;52.256;9.356;2022-12-18T14:20:43;101334.47;;;-2.00;100.00
40073;BME280;25774;52.256;9.356;2022-12-18T14:23:35;101350.16;;;-1.88;100.00
40073;BME280;25774;52.256;9.356;2022-12-18T14:26:02;101343.22;;;-1.89;100.00